createdAt,value
2022-09-06T00:00:35.946Z,65.00
2022-09-06T00:05:41.418Z,64.95
2022-09-06T00:10:44.106Z,65.18
2022-09-06T00:15:47.108Z,65.10
2022-09-06T00:20:51.109Z,65.61
2022-09-06T00:25:53.861Z,65.39
2022-09-06T00:30:57.225Z,65.76
2022-09-06T00:36:01.704Z,65.83
2022-09-06T00:41:04.818Z,65.88
2022-09-06T00:46:09.610Z,65.98
2022-09-06T00:51:14.726Z,66.12
2022-09-06T00:56:17.434Z,66.04
2022-09-06T01:01:20.380Z,66.45
2022-09-06T01:06:27.350Z,66.09
2022-09-06T01:11:49.573Z,66.45
2022-09-06T01:16:58.434Z,66.57
2022-09-06T01:22:14.402Z,66.86
2022-09-06T01:27:50.076Z,67.09
2022-09-06T01:32:58.067Z,67.19
2022-09-06T01:38:01.164Z,67.19
2022-09-06T01:43:08.993Z,67.21
2022-09-06T01:48:28.905Z,67.33
2022-09-06T01:53:45.876Z,67.25
2022-09-06T01:59:12.427Z,67.50
2022-09-06T02:04:21.670Z,67.59
2022-09-06T02:09:26.941Z,67.90
2022-09-06T02:14:34.036Z,67.94
2022-09-06T02:19:41.044Z,68.26
2022-09-06T02:24:45.588Z,68.04
2022-09-06T02:29:48.364Z,68.56
2022-09-06T02:34:53.831Z,68.57
2022-09-06T02:39:56.704Z,68.64
2022-09-06T02:44:59.332Z,68.57
2022-09-06T02:50:03.407Z,68.64
2022-09-06T02:55:07.262Z,68.17
2022-09-06T03:00:11.458Z,68.01
2022-09-06T03:05:15.543Z,68.45
2022-09-06T03:10:20.476Z,68.51
2022-09-06T03:15:23.083Z,68.23
2022-09-06T03:20:27.250Z,68.13
2022-09-06T03:25:29.912Z,68.51
2022-09-06T03:30:32.745Z,68.92
2022-09-06T03:35:36.779Z,68.83
2022-09-06T03:40:39.492Z,69.01
2022-09-06T03:45:46.770Z,69.00
2022-09-06T03:50:52.756Z,69.36
2022-09-06T03:55:57.512Z,69.48
2022-09-06T04:01:05.577Z,69.66
2022-09-06T04:06:10.082Z,69.89
2022-09-06T04:11:12.746Z,70.13
2022-09-06T04:16:17.601Z,69.86
2022-09-06T04:21:21.739Z,69.86
2022-09-06T04:26:24.472Z,69.99
2022-09-06T04:31:27.469Z,70.20
2022-09-06T04:36:31.463Z,70.13
2022-09-06T04:41:34.118Z,70.21
2022-09-06T04:46:36.830Z,70.35
2022-09-06T04:51:40.955Z,70.39
2022-09-06T04:56:43.630Z,70.55
2022-09-06T05:01:46.305Z,70.75
2022-09-06T05:06:50.627Z,70.64
2022-09-06T05:11:53.641Z,70.53
2022-09-06T05:16:56.407Z,70.70
2022-09-06T05:22:00.441Z,70.51
2022-09-06T05:27:04.377Z,70.51
2022-09-06T05:32:07.458Z,70.44
2022-09-06T05:37:11.481Z,70.33
2022-09-06T05:42:19.015Z,69.98
2022-09-06T05:47:22.011Z,69.90
2022-09-06T05:52:25.994Z,70.20
2022-09-06T05:57:31.436Z,70.25
2022-09-06T06:02:34.130Z,70.34
2022-09-06T06:07:38.131Z,70.24
2022-09-06T06:12:40.802Z,70.38
2022-09-06T06:17:43.451Z,70.43
2022-09-06T06:22:47.406Z,70.47
2022-09-06T06:27:50.124Z,70.39
2022-09-06T06:32:52.767Z,70.28
2022-09-06T06:37:57.041Z,70.24
2022-09-06T06:43:00.399Z,70.11
2022-09-06T06:48:03.559Z,70.13
2022-09-06T06:53:07.540Z,69.98
2022-09-06T06:58:10.333Z,69.93
2022-09-06T07:03:14.017Z,69.69
2022-09-06T07:08:18.395Z,69.68
2022-09-06T07:13:21.173Z,69.64
2022-09-06T07:18:23.973Z,69.32
2022-09-06T07:28:53.296Z,69.12
2022-09-06T07:33:56.130Z,69.04
2022-09-06T07:39:00.360Z,68.90
2022-09-06T07:44:03.757Z,69.05
2022-09-06T07:49:06.791Z,69.07
2022-09-06T07:54:29.906Z,69.35
2022-09-06T07:59:33.395Z,68.77
2022-09-06T08:04:36.065Z,68.38
2022-09-06T08:09:40.112Z,68.02
2022-09-06T08:14:42.774Z,67.91
2022-09-06T08:19:45.449Z,68.29
2022-09-06T08:24:49.504Z,67.33
2022-09-06T08:29:52.351Z,67.02
2022-09-06T08:34:55.083Z,66.28
2022-09-06T08:39:59.312Z,66.34
2022-09-06T08:45:04.173Z,66.10
2022-09-06T08:50:08.437Z,66.38
2022-09-06T08:55:21.242Z,66.65
2022-09-06T09:00:24.063Z,67.31
2022-09-06T09:05:29.237Z,66.61
2022-09-06T09:10:41.915Z,66.50
2022-09-06T09:15:44.644Z,65.42
2022-09-06T09:20:47.294Z,64.69
2022-09-06T09:25:53.542Z,64.86
2022-09-06T09:30:57.791Z,65.47
2022-09-06T09:36:02.421Z,65.30
2022-09-06T09:41:08.042Z,65.15
2022-09-06T09:46:16.799Z,64.59
2022-09-06T09:51:26.609Z,64.63
2022-09-06T09:56:35.588Z,64.09
2022-09-06T10:01:39.642Z,63.96
2022-09-06T10:12:07.368Z,63.40
2022-09-06T10:17:19.465Z,63.15
2022-09-06T10:22:27.538Z,62.88
2022-09-06T10:27:33.136Z,62.56
2022-09-06T10:32:42.435Z,61.93
2022-09-06T10:38:04.531Z,61.26
2022-09-06T10:43:10.334Z,60.53
2022-09-06T10:48:18.120Z,59.23
2022-09-06T10:53:33.846Z,58.62
2022-09-06T11:04:12.775Z,61.50
2022-09-06T11:09:23.860Z,62.53
2022-09-06T11:14:28.730Z,63.33
2022-09-06T11:19:34.860Z,63.72
2022-09-06T11:24:48.716Z,64.18
2022-09-06T11:29:56.444Z,64.52
2022-09-06T11:35:00.827Z,64.85
2022-09-06T11:45:45.429Z,65.56
2022-09-06T11:51:03.295Z,65.96
2022-09-06T11:56:25.726Z,66.04
2022-09-06T12:01:38.266Z,66.39
2022-09-06T12:06:43.648Z,66.57
2022-09-06T12:11:48.568Z,66.55
2022-09-06T12:17:28.124Z,66.34
2022-09-06T12:23:02.199Z,67.14
2022-09-06T12:28:06.384Z,67.09
2022-09-06T12:33:13.928Z,67.40
2022-09-06T12:38:18.190Z,66.92
2022-09-06T12:43:21.097Z,66.53
2022-09-06T12:48:28.726Z,66.32
2022-09-06T12:53:34.398Z,66.12
2022-09-06T12:58:38.683Z,66.18
2022-09-06T13:03:45.169Z,66.78
2022-09-06T13:08:50.992Z,66.44
2022-09-06T13:13:55.121Z,65.91
2022-09-06T13:19:11.692Z,65.54
2022-09-06T13:24:23.025Z,66.17
2022-09-06T13:29:27.477Z,66.20
2022-09-06T13:34:32.117Z,66.29
2022-09-06T13:39:38.562Z,66.35
2022-09-06T13:44:41.394Z,66.00
2022-09-06T13:49:44.235Z,65.10
2022-09-06T13:54:48.748Z,65.24
2022-09-06T13:59:51.371Z,65.32
2022-09-06T14:04:54.026Z,64.92
2022-09-06T14:09:58.063Z,63.66
2022-09-06T14:15:00.891Z,61.99
2022-09-06T14:20:04.187Z,61.10
2022-09-06T14:25:09.437Z,61.83
2022-09-06T14:30:13.560Z,61.99
2022-09-06T14:35:16.358Z,63.16
2022-09-06T14:40:20.484Z,64.23
2022-09-06T14:45:23.238Z,64.71
2022-09-06T14:50:25.941Z,65.12
2022-09-06T14:55:30.723Z,65.56
2022-09-06T15:00:33.683Z,65.63
2022-09-06T15:05:36.511Z,65.70
2022-09-06T15:10:41.024Z,66.59
2022-09-06T15:15:44.127Z,67.36
2022-09-06T15:20:47.071Z,67.55
2022-09-06T15:25:52.310Z,67.53
2022-09-06T15:30:55.829Z,67.69
2022-09-06T15:36:00.521Z,67.15
2022-09-06T15:41:09.348Z,67.65
2022-09-06T15:46:12.316Z,68.50
2022-09-06T15:51:16.407Z,69.01
2022-09-06T15:56:20.642Z,68.70
2022-09-06T16:01:24.453Z,67.92
2022-09-06T16:06:28.637Z,67.65
2022-09-06T16:11:35.715Z,67.02
2022-09-06T16:16:40.523Z,66.35
2022-09-06T16:21:44.440Z,66.51
2022-09-06T16:26:48.584Z,66.73
2022-09-06T16:31:54.090Z,66.75
2022-09-06T16:36:57.087Z,66.97
2022-09-06T16:42:01.265Z,67.53
2022-09-06T16:47:04.578Z,67.97
2022-09-06T16:52:07.345Z,68.25
2022-09-06T16:57:11.417Z,68.35
2022-09-06T17:02:14.495Z,68.68
2022-09-06T17:07:17.821Z,68.97
2022-09-06T17:12:22.191Z,69.57
2022-09-06T17:17:24.885Z,70.04
2022-09-06T17:22:27.734Z,70.80
2022-09-06T17:27:32.089Z,71.67
2022-09-06T17:32:36.575Z,71.84
2022-09-06T17:37:39.332Z,72.23
2022-09-06T17:42:43.464Z,72.63
2022-09-06T17:47:46.197Z,72.82
2022-09-06T17:52:51.528Z,73.46
2022-09-06T17:57:56.084Z,73.52
2022-09-06T18:02:59.133Z,74.08
2022-09-06T18:08:02.247Z,74.17
2022-09-06T18:13:07.101Z,74.41
2022-09-06T18:18:10.059Z,74.51
2022-09-06T18:23:12.932Z,75.11
2022-09-06T18:28:17.119Z,74.99
2022-09-06T18:33:19.931Z,75.42
2022-09-06T18:38:22.778Z,75.10
2022-09-06T18:43:29.527Z,75.67
2022-09-06T18:48:33.706Z,75.65
2022-09-06T18:53:36.628Z,75.69
2022-09-06T18:58:41.036Z,76.04
2022-09-06T19:03:44.389Z,75.97
2022-09-06T19:08:47.838Z,76.15
2022-09-06T19:13:53.651Z,76.13
2022-09-06T19:18:57.369Z,76.16
2022-09-06T19:24:01.634Z,76.19
2022-09-06T19:29:09.118Z,76.18
2022-09-06T19:34:13.489Z,76.19
2022-09-06T19:39:17.482Z,76.36
2022-09-06T19:44:22.209Z,76.75
2022-09-06T19:49:25.154Z,76.50
2022-09-06T19:54:28.327Z,76.56
2022-09-06T19:59:33.448Z,76.87
2022-09-06T20:04:36.158Z,76.88
2022-09-06T20:09:38.947Z,76.96
2022-09-06T20:14:43.367Z,77.20
2022-09-06T20:19:46.223Z,77.38
2022-09-06T20:24:48.919Z,77.55
2022-09-06T20:29:53.021Z,77.58
2022-09-06T20:34:55.697Z,77.46
2022-09-06T20:39:58.490Z,77.53
2022-09-06T20:45:03.527Z,77.87
2022-09-06T20:50:07.172Z,77.63
2022-09-06T20:55:10.618Z,77.82
2022-09-06T21:00:15.948Z,78.26
2022-09-06T21:05:18.644Z,78.42
2022-09-06T21:10:21.373Z,78.47
2022-09-06T21:15:25.476Z,78.45
2022-09-06T21:20:28.239Z,78.90
2022-09-06T21:25:31.128Z,78.84
2022-09-06T21:30:35.507Z,79.26
2022-09-06T21:35:38.400Z,79.24
2022-09-06T21:40:41.185Z,79.29
2022-09-06T21:45:45.786Z,79.23
2022-09-06T21:50:49.020Z,79.45
2022-09-06T21:55:52.000Z,79.42
2022-09-06T22:00:59.190Z,79.47
2022-09-06T22:06:09.514Z,79.92
2022-09-06T22:11:14.469Z,80.02
2022-09-06T22:16:22.697Z,80.15
2022-09-06T22:21:25.683Z,80.30
2022-09-06T22:26:30.149Z,80.40
2022-09-06T22:31:35.172Z,80.44
2022-09-06T22:36:38.071Z,80.56
2022-09-06T22:41:40.861Z,80.71
2022-09-06T22:46:45.219Z,81.01
2022-09-06T22:51:48.131Z,81.36
2022-09-06T22:56:50.996Z,81.33
2022-09-06T23:01:55.072Z,81.10
2022-09-06T23:06:57.832Z,81.42
2022-09-06T23:12:01.250Z,81.73
2022-09-06T23:17:05.527Z,82.00
2022-09-06T23:22:08.270Z,82.01
2022-09-06T23:27:11.027Z,82.00
2022-09-06T23:32:15.144Z,82.13
2022-09-06T23:37:19.089Z,82.10
2022-09-06T23:42:22.994Z,82.18
2022-09-06T23:47:27.103Z,82.31
2022-09-06T23:52:29.917Z,82.41
2022-09-06T23:57:32.684Z,82.31
